Time;durP1;ratioP1;P1;durP2;ratioP2;P2;SDS_P1;SDS_P2;PMS_P1;PMS_P2;Temp;Humidity;BMP_temperature;BMP_pressure;BME280_temperature;BME280_humidity;BME280_pressure;Samples;Min_cycle;Max_cycle;Signal;HPM_P1;HPM_P2
2024/04/13 00:01:24;;;;;;;0.93;0.50;;;18.70;75.10;;;;;;5440242;26;20448;-84
2024/04/13 00:03:53;;;;;;;0.57;0.57;;;18.70;75.10;;;;;;5441144;26;20571;-83
2024/04/13 00:06:18;;;;;;;0.40;0.40;;;18.70;75.10;;;;;;5437571;26;20002;-84
2024/04/13 00:08:44;;;;;;;0.55;0.43;;;18.60;75.00;;;;;;5436082;26;20069;-84
2024/04/13 00:11:10;;;;;;;0.40;0.40;;;18.60;75.10;;;;;;5435674;26;20090;-84
2024/04/13 00:13:36;;;;;;;0.60;0.60;;;18.60;75.10;;;;;;5441356;26;20022;-84
2024/04/13 00:16:02;;;;;;;0.50;0.50;;;18.60;75.10;;;;;;5419517;26;20123;-84
2024/04/13 00:18:28;;;;;;;0.60;0.60;;;18.60;75.10;;;;;;5434378;26;20027;-84
2024/04/13 00:20:54;;;;;;;0.30;0.30;;;18.60;75.10;;;;;;5380855;26;20445;-84
2024/04/13 00:23:20;;;;;;;0.50;0.50;;;18.60;75.20;;;;;;5411722;26;20022;-84
2024/04/13 00:25:56;;;;;;;4.38;0.52;;;18.60;75.20;;;;;;5436728;26;20010;-84
2024/04/13 00:28:22;;;;;;;1.35;0.50;;;18.60;75.20;;;;;;5408786;26;20014;-84
2024/04/13 00:30:47;;;;;;;0.50;0.50;;;18.60;75.20;;;;;;5439786;26;20003;-84
2024/04/13 00:33:13;;;;;;;0.55;0.45;;;18.60;75.20;;;;;;5437699;26;20042;-84
2024/04/13 00:35:39;;;;;;;0.60;0.57;;;18.60;75.30;;;;;;5407368;26;20007;-84
2024/04/13 00:38:05;;;;;;;0.60;0.45;;;18.60;75.30;;;;;;5410971;26;20485;-84
2024/04/13 00:40:31;;;;;;;1.10;0.60;;;18.50;75.20;;;;;;5439606;26;20018;-84
2024/04/13 00:43:08;;;;;;;0.50;0.50;;;18.60;75.40;;;;;;5441874;26;20051;-84
2024/04/13 00:45:42;;;;;;;0.60;0.60;;;18.50;75.30;;;;;;5436516;26;20452;-84
2024/04/13 00:48:09;;;;;;;;;;;18.50;75.30;;;;;;5411814;26;19999;-84
2024/04/13 00:50:35;;;;;;;0.35;0.30;;;18.50;75.30;;;;;;5455546;26;19932;-83
2024/04/13 00:53:00;;;;;;;0.40;0.40;;;18.50;75.20;;;;;;5377902;26;20000;-83
2024/04/13 00:55:26;;;;;;;0.52;0.52;;;18.60;75.40;;;;;;5439963;26;20079;-83
2024/04/13 00:57:52;;;;;;;0.38;0.38;;;18.50;75.50;;;;;;5380164;26;20051;-83
2024/04/13 01:00:19;;;;;;;0.50;0.45;;;18.50;75.50;;;;;;5484548;26;20015;-84
2024/04/13 01:02:45;;;;;;;0.50;0.50;;;18.50;75.50;;;;;;5412233;26;19995;-84
2024/04/13 01:05:13;;;;;;;0.70;0.70;;;18.50;75.50;;;;;;5440580;26;20336;-84
2024/04/13 01:07:39;;;;;;;0.35;0.35;;;18.50;75.50;;;;;;5407153;26;20075;-84
2024/04/13 01:10:06;;;;;;;0.38;0.38;;;18.50;75.50;;;;;;5440295;26;19995;-84
2024/04/13 01:12:31;;;;;;;0.50;0.50;;;18.50;75.50;;;;;;5409894;26;20039;-84
2024/04/13 01:14:57;;;;;;;1.02;0.40;;;18.50;76.30;;;;;;5437576;26;19995;-84
2024/04/13 01:17:23;;;;;;;0.50;0.50;;;18.50;75.50;;;;;;5412368;26;20018;-84
2024/04/13 01:19:48;;;;;;;0.50;0.50;;;18.50;75.50;;;;;;5442610;26;19999;-84
2024/04/13 01:22:15;;;;;;;0.40;0.40;;;18.50;75.40;;;;;;5440477;26;20381;-85
2024/04/13 01:24:40;;;;;;;0.63;0.63;;;18.50;75.50;;;;;;5402567;26;20039;-84
2024/04/13 01:27:06;;;;;;;0.40;0.40;;;18.50;75.50;;;;;;5434493;26;20006;-84
2024/04/13 01:29:32;;;;;;;0.38;0.38;;;18.50;75.50;;;;;;5438064;26;20003;-85
2024/04/13 01:31:58;;;;;;;0.38;0.38;;;18.40;75.40;;;;;;5405137;26;20089;-84
2024/04/13 01:34:24;;;;;;;0.60;0.60;;;18.40;75.40;;;;;;5438750;26;20379;-84
2024/04/13 01:36:49;;;;;;;0.88;0.45;;;18.50;75.50;;;;;;5409786;26;20699;-84
2024/04/13 01:39:15;;;;;;;0.50;0.50;;;18.40;75.40;;;;;;5442977;26;20017;-84
2024/04/13 01:41:46;;;;;;;0.40;0.40;;;18.40;75.30;;;;;;5442968;26;20002;-83
2024/04/13 01:44:12;;;;;;;0.50;0.50;;;18.40;75.30;;;;;;5437913;26;20006;-83
2024/04/13 01:46:38;;;;;;;0.35;0.35;;;18.40;75.60;;;;;;5438587;26;20007;-83
2024/04/13 01:49:04;;;;;;;0.43;0.43;;;18.40;75.50;;;;;;5442330;26;20082;-83
2024/04/13 01:51:30;;;;;;;0.52;0.52;;;18.40;75.40;;;;;;5411120;26;20006;-83
2024/04/13 01:53:56;;;;;;;0.43;0.43;;;18.40;75.40;;;;;;5441735;26;20010;-83
2024/04/13 01:56:22;;;;;;;0.40;0.40;;;18.40;75.40;;;;;;5445106;26;20046;-83
2024/04/13 01:58:48;;;;;;;0.40;0.40;;;18.40;75.50;;;;;;5437311;26;20012;-83
2024/04/13 02:01:13;;;;;;;0.52;0.40;;;18.40;75.50;;;;;;5385193;26;20401;-83
2024/04/13 02:03:39;;;;;;;0.57;0.57;;;18.40;75.30;;;;;;5438965;26;20539;-83
2024/04/13 02:06:04;;;;;;;0.40;0.35;;;18.40;76.30;;;;;;5442824;26;19995;-83
2024/04/13 02:08:33;;;;;;;0.50;0.45;;;18.40;75.50;;;;;;5440363;26;20015;-83
2024/04/13 02:11:23;;;;;;;0.40;0.40;;;18.40;75.40;;;;;;5386453;26;20004;-83
2024/04/13 02:13:48;;;;;;;0.40;0.40;;;18.40;75.40;;;;;;5424378;26;20008;-84
2024/04/13 02:16:14;;;;;;;0.60;0.57;;;18.40;75.50;;;;;;5445376;26;20010;-84
2024/04/13 02:18:40;;;;;;;0.40;0.40;;;18.30;75.30;;;;;;5442982;26;20013;-84
2024/04/13 02:21:05;;;;;;;0.45;0.45;;;18.40;75.40;;;;;;5412886;26;20003;-84
2024/04/13 02:23:31;;;;;;;0.73;0.47;;;18.30;75.40;;;;;;5494414;26;20003;-84
2024/04/13 02:25:58;;;;;;;0.50;0.50;;;18.40;75.40;;;;;;5434296;26;20026;-84
2024/04/13 02:28:24;;;;;;;0.40;0.40;;;18.40;75.30;;;;;;5442716;26;20003;-84
2024/04/13 02:30:50;;;;;;;0.45;0.45;;;18.40;75.30;;;;;;5441319;26;20003;-84
2024/04/13 02:33:24;;;;;;;0.50;0.50;;;18.40;75.40;;;;;;5436971;26;20530;-85
2024/04/13 02:36:03;;;;;;;0.60;0.60;;;18.40;75.30;;;;;;5435364;26;20529;-84
2024/04/13 02:38:29;;;;;;;1.30;0.40;;;18.40;75.40;;;;;;5442966;26;20002;-85
2024/04/13 02:40:59;;;;;;;0.43;0.43;;;18.30;75.30;;;;;;5469681;26;20015;-84
2024/04/13 02:43:25;;;;;;;0.45;0.40;;;18.30;75.30;;;;;;5470631;26;20538;-84
2024/04/13 02:45:51;;;;;;;0.47;0.47;;;18.40;75.40;;;;;;5440352;26;20433;-84
2024/04/13 02:48:17;;;;;;;0.50;0.25;;;18.30;75.20;;;;;;5443635;26;20048;-84
2024/04/13 02:50:44;;;;;;;0.60;0.60;;;18.40;75.40;;;;;;5434034;26;20014;-84
2024/04/13 02:53:12;;;;;;;0.95;0.60;;;18.30;75.40;;;;;;5439494;26;19999;-83
2024/04/13 02:55:38;;;;;;;0.40;0.40;;;18.30;76.10;;;;;;5409003;26;20014;-84
2024/04/13 02:58:03;;;;;;;0.50;0.50;;;18.30;75.40;;;;;;5442052;26;20362;-84
2024/04/13 03:00:29;;;;;;;0.40;0.40;;;18.30;75.30;;;;;;5497781;25;20006;-83
2024/04/13 03:02:55;;;;;;;0.43;0.43;;;18.30;75.40;;;;;;5382708;26;20003;-84
2024/04/13 03:05:20;;;;;;;0.50;0.50;;;18.30;75.40;;;;;;5431028;26;20437;-84
2024/04/13 03:07:46;;;;;;;0.30;0.30;;;18.30;75.40;;;;;;5433757;26;20015;-83
2024/04/13 03:10:11;;;;;;;0.50;0.50;;;18.30;75.40;;;;;;5440389;26;20621;-84
2024/04/13 03:12:37;;;;;;;0.40;0.40;;;18.30;75.30;;;;;;5435339;26;20035;-84
2024/04/13 03:15:03;;;;;;;0.38;0.38;;;18.30;75.40;;;;;;5441521;26;20013;-84
2024/04/13 03:17:29;;;;;;;0.40;0.40;;;18.30;75.40;;;;;;5413088;26;20010;-84
2024/04/13 03:19:55;;;;;;;0.47;0.40;;;18.30;75.30;;;;;;5406456;26;20015;-84
2024/04/13 03:22:20;;;;;;;0.55;0.40;;;18.30;75.40;;;;;;5442511;26;20010;-84
2024/04/13 03:24:46;;;;;;;0.50;0.50;;;18.30;75.30;;;;;;5444329;26;20071;-84
2024/04/13 03:27:12;;;;;;;0.50;0.50;;;18.30;75.40;;;;;;5437183;26;20122;-84
2024/04/13 03:29:38;;;;;;;0.50;0.50;;;18.30;75.40;;;;;;5410512;26;20031;-84
2024/04/13 03:32:05;;;;;;;0.40;0.40;;;18.30;75.40;;;;;;5432510;26;19999;-83
2024/04/13 03:34:30;;;;;;;0.40;0.40;;;18.30;75.40;;;;;;5436301;26;20079;-84
2024/04/13 03:36:56;;;;;;;0.88;0.57;;;18.30;75.30;;;;;;5442047;26;20011;-84
2024/04/13 03:39:21;;;;;;;0.45;0.45;;;18.20;75.20;;;;;;5432422;26;19998;-84
2024/04/13 03:41:48;;;;;;;0.38;0.38;;;18.20;75.30;;;;;;5439819;26;20027;-84
2024/04/13 03:44:13;;;;;;;0.38;0.38;;;18.30;75.40;;;;;;5438888;26;20048;-84
2024/04/13 03:46:39;;;;;;;0.50;0.50;;;18.30;75.40;;;;;;5434097;26;20330;-85
2024/04/13 03:49:05;;;;;;;0.55;0.55;;;18.30;75.40;;;;;;5410493;26;20006;-85
2024/04/13 03:51:30;;;;;;;0.40;0.40;;;18.20;75.30;;;;;;5465091;26;20445;-85
2024/04/13 03:53:57;;;;;;;0.50;0.50;;;18.20;75.30;;;;;;5439629;26;20031;-85
2024/04/13 03:56:23;;;;;;;0.50;0.40;;;18.30;75.40;;;;;;5408605;26;20002;-85
2024/04/13 03:58:48;;;;;;;0.40;0.40;;;18.20;75.30;;;;;;5494056;25;20080;-85
2024/04/13 04:01:14;;;;;;;0.52;0.52;;;18.20;75.30;;;;;;5408765;26;20013;-84
2024/04/13 04:03:40;;;;;;;0.60;0.60;;;18.20;75.20;;;;;;5461388;26;20003;-84
2024/04/13 04:06:05;;;;;;;0.40;0.40;;;18.20;75.30;;;;;;5440334;26;20342;-84
2024/04/13 04:08:31;;;;;;;0.40;0.40;;;18.20;75.30;;;;;;5438716;26;20099;-84
2024/04/13 04:10:57;;;;;;;0.40;0.40;;;18.20;75.20;;;;;;5436099;26;20088;-84
2024/04/13 04:13:25;;;;;;;0.50;0.50;;;18.20;75.30;;;;;;5416291;26;20492;-84
2024/04/13 04:15:53;;;;;;;0.50;0.50;;;18.20;75.30;;;;;;5404668;26;20337;-84
2024/04/13 04:18:19;;;;;;;1.10;0.40;;;18.20;75.20;;;;;;5401591;26;20011;-84
2024/04/13 04:20:47;;;;;;;0.60;0.60;;;18.20;75.30;;;;;;5437783;26;20055;-84
2024/04/13 04:23:13;;;;;;;0.70;0.57;;;18.20;75.10;;;;;;5440336;26;19995;-84
2024/04/13 04:25:42;;;;;;;0.40;0.40;;;18.20;75.10;;;;;;5440805;26;20441;-85
2024/04/13 04:28:08;;;;;;;0.50;0.40;;;18.20;75.30;;;;;;5429906;26;19991;-85
2024/04/13 04:30:46;;;;;;;0.40;0.40;;;18.20;75.30;;;;;;5440438;26;20080;-85
2024/04/13 04:33:12;;;;;;;0.32;0.32;;;18.20;75.20;;;;;;5414364;26;20021;-84
2024/04/13 04:35:38;;;;;;;0.40;0.40;;;18.20;75.20;;;;;;5440087;26;20452;-84
2024/04/13 04:38:04;;;;;;;0.40;0.40;;;18.20;75.30;;;;;;5442271;26;20031;-84
2024/04/13 04:40:29;;;;;;;0.47;0.45;;;18.20;75.20;;;;;;5409646;26;20003;-84
2024/04/13 04:42:57;;;;;;;0.65;0.40;;;18.20;75.20;;;;;;5439317;26;20011;-85
2024/04/13 04:45:22;;;;;;;0.30;0.30;;;18.20;75.20;;;;;;5439391;26;19999;-84
2024/04/13 04:47:49;;;;;;;0.40;0.40;;;18.20;75.10;;;;;;5436824;26;20015;-84
2024/04/13 04:50:15;;;;;;;0.68;0.50;;;18.20;75.20;;;;;;5432449;26;20438;-84
2024/04/13 04:52:40;;;;;;;0.47;0.47;;;18.20;75.10;;;;;;5408587;26;20043;-84
2024/04/13 04:55:06;;;;;;;0.30;0.30;;;18.20;75.00;;;;;;5411645;26;20030;-84
2024/04/13 04:57:32;;;;;;;0.60;0.50;;;18.20;75.90;;;;;;5440220;26;20356;-84
2024/04/13 04:59:58;;;;;;;0.50;0.50;;;18.10;75.00;;;;;;5437189;26;20025;-84
2024/04/13 05:02:24;;;;;;;0.50;0.50;;;18.20;75.00;;;;;;5380269;26;20007;-84
2024/04/13 05:04:50;;;;;;;0.30;0.30;;;18.20;75.10;;;;;;5435315;26;20007;-84
2024/04/13 05:07:15;;;;;;;0.60;0.60;;;18.10;75.00;;;;;;5444015;26;20011;-84
2024/04/13 05:09:41;;;;;;;0.50;0.40;;;18.10;75.00;;;;;;5411190;26;20014;-84
2024/04/13 05:12:07;;;;;;;0.40;0.40;;;18.10;75.10;;;;;;5379042;26;20044;-84
2024/04/13 05:14:32;;;;;;;0.40;0.40;;;18.10;75.10;;;;;;5401935;26;19999;-84
2024/04/13 05:16:58;;;;;;;0.40;0.40;;;18.10;75.00;;;;;;5495105;25;20011;-84
2024/04/13 05:19:24;;;;;;;0.93;0.30;;;18.20;75.00;;;;;;5444534;26;19995;-83
2024/04/13 05:21:49;;;;;;;0.32;0.32;;;18.10;75.00;;;;;;5439679;26;20010;-85
2024/04/13 05:24:15;;;;;;;0.30;0.30;;;18.10;75.00;;;;;;5442225;26;20007;-84
2024/04/13 05:26:42;;;;;;;1.08;0.50;;;18.10;75.00;;;;;;5441993;26;20013;-84
2024/04/13 05:29:09;;;;;;;0.40;0.40;;;18.10;74.90;;;;;;5435356;26;20023;-84
2024/04/13 05:31:34;;;;;;;0.57;0.40;;;18.10;75.00;;;;;;5439807;26;20003;-86
2024/04/13 05:34:00;;;;;;;0.40;0.40;;;18.10;75.10;;;;;;5442084;26;20014;-86
2024/04/13 05:36:33;;;;;;;0.60;0.52;;;18.10;75.10;;;;;;5436330;26;20010;-85
2024/04/13 05:38:58;;;;;;;1.23;0.45;;;18.20;74.90;;;;;;5382241;26;20006;-83
2024/04/13 05:41:24;;;;;;;0.60;0.60;;;18.20;75.80;;;;;;5437878;26;20326;-83
2024/04/13 05:43:49;;;;;;;0.63;0.63;;;18.20;75.00;;;;;;5441875;26;20014;-84
2024/04/13 05:46:15;;;;;;;0.70;0.70;;;18.20;75.10;;;;;;5418150;26;20391;-83
2024/04/13 05:48:41;;;;;;;1.77;1.10;;;18.20;75.30;;;;;;5437264;26;20076;-83
2024/04/13 05:51:09;;;;;;;0.63;0.63;;;18.20;75.30;;;;;;5439973;26;20003;-83
2024/04/13 05:53:35;;;;;;;0.90;0.65;;;18.20;75.40;;;;;;5441454;26;20010;-84
2024/04/13 05:56:04;;;;;;;0.50;0.50;;;18.20;75.30;;;;;;5414059;26;20013;-84
2024/04/13 05:58:30;;;;;;;0.52;0.52;;;18.20;75.30;;;;;;5438952;26;19995;-84
2024/04/13 06:00:56;;;;;;;0.50;0.50;;;18.20;75.30;;;;;;5442681;26;20018;-84
2024/04/13 06:03:22;;;;;;;0.40;0.40;;;18.20;75.40;;;;;;5443177;26;20479;-85
2024/04/13 06:05:47;;;;;;;0.80;0.60;;;18.10;75.40;;;;;;5413400;26;20021;-83
2024/04/13 06:08:13;;;;;;;0.57;0.57;;;18.20;75.30;;;;;;5439659;26;20006;-84
2024/04/13 06:10:39;;;;;;;0.60;0.60;;;18.20;75.10;;;;;;5413223;26;20432;-84
2024/04/13 06:13:05;;;;;;;0.80;0.80;;;18.20;75.70;;;;;;5408869;26;20007;-84
2024/04/13 06:15:30;;;;;;;0.85;0.82;;;18.30;75.40;;;;;;5382130;26;19995;-84
2024/04/13 06:17:57;;;;;;;0.88;0.88;;;18.30;75.30;;;;;;5382489;26;20004;-83
2024/04/13 06:20:22;;;;;;;0.60;0.60;;;18.30;75.20;;;;;;5411809;26;20019;-82
2024/04/13 06:22:48;;;;;;;0.60;0.60;;;18.40;75.10;;;;;;5051160;26;10000470;-81
2024/04/13 06:25:16;;;;;;;0.43;0.43;;;18.40;74.90;;;;;;5435504;26;20379;-80
2024/04/13 06:27:42;;;;;;;0.63;0.50;;;18.40;75.00;;;;;;5409209;26;20197;-80
2024/04/13 06:30:09;;;;;;;0.57;0.57;;;18.40;75.10;;;;;;5374648;26;20575;-82
2024/04/13 06:32:43;;;;;;;0.80;0.80;;;18.30;75.50;;;;;;5433725;26;20015;-83
2024/04/13 06:35:09;;;;;;;0.70;0.70;;;18.40;75.00;;;;;;5462233;25;20006;-79
2024/04/13 06:37:35;;;;;;;0.70;0.50;;;18.40;75.40;;;;;;5438581;26;20326;-80
2024/04/13 06:40:04;;;;;;;1.42;0.95;;;18.50;75.20;;;;;;5414710;26;20056;-81
2024/04/13 06:42:29;;;;;;;0.60;0.60;;;18.50;74.90;;;;;;5406960;26;20079;-80
2024/04/13 06:44:55;;;;;;;0.88;0.65;;;18.50;75.10;;;;;;5440972;26;20004;-80
2024/04/13 06:47:20;;;;;;;0.73;0.60;;;18.60;75.10;;;;;;5436947;26;19999;-80
2024/04/13 06:49:46;;;;;;;0.60;0.60;;;18.60;75.00;;;;;;5501914;26;20448;-80
2024/04/13 06:52:12;;;;;;;0.70;0.70;;;18.50;75.10;;;;;;5413755;26;20019;-80
2024/04/13 06:54:38;;;;;;;0.82;0.70;;;18.60;75.20;;;;;;5438087;26;20558;-80
2024/04/13 06:57:04;;;;;;;0.40;0.40;;;18.60;75.10;;;;;;5408663;26;20003;-81
2024/04/13 06:59:29;;;;;;;0.40;0.40;;;18.60;75.30;;;;;;5430066;26;20124;-81
2024/04/13 07:01:55;;;;;;;0.82;0.60;;;18.60;75.30;;;;;;5380753;26;20469;-81
2024/04/13 07:04:20;;;;;;;0.60;0.60;;;18.50;75.10;;;;;;5442667;26;20002;-81
2024/04/13 07:06:46;;;;;;;0.57;0.57;;;18.50;75.30;;;;;;5441583;26;20015;-80
2024/04/13 07:09:12;;;;;;;0.57;0.57;;;18.50;75.30;;;;;;5440094;26;20011;-81
2024/04/13 07:11:37;;;;;;;0.40;0.40;;;18.60;75.70;;;;;;5439730;26;20086;-81
2024/04/13 07:14:03;;;;;;;0.68;0.50;;;18.50;75.50;;;;;;5442775;26;20071;-81
2024/04/13 07:16:30;;;;;;;0.40;0.40;;;18.50;75.60;;;;;;5471099;26;20003;-81
2024/04/13 07:18:55;;;;;;;0.57;0.57;;;18.50;75.70;;;;;;5443247;26;20043;-80
2024/04/13 07:21:21;;;;;;;0.70;0.70;;;18.50;75.70;;;;;;5440651;26;20003;-80
2024/04/13 07:23:48;;;;;;;0.70;0.70;;;18.50;75.70;;;;;;5413537;26;20053;-81
2024/04/13 07:26:13;;;;;;;0.55;0.55;;;18.50;75.90;;;;;;5378080;26;20015;-81
2024/04/13 07:28:39;;;;;;;0.70;0.70;;;18.50;75.80;;;;;;5436178;26;20075;-81
2024/04/13 07:31:04;;;;;;;4.20;0.50;;;18.50;76.10;;;;;;5435580;26;20003;-80
2024/04/13 07:33:31;;;;;;;1.27;0.50;;;18.50;76.10;;;;;;5432857;26;20015;-80
2024/04/13 07:35:56;;;;;;;0.77;0.77;;;18.50;75.90;;;;;;5435852;26;19998;-80
2024/04/13 07:38:23;;;;;;;0.45;0.45;;;18.50;75.70;;;;;;5406734;26;20007;-81
2024/04/13 07:40:49;;;;;;;1.40;0.65;;;18.50;75.50;;;;;;5429497;26;20010;-81
2024/04/13 07:43:14;;;;;;;1.08;0.73;;;18.50;75.50;;;;;;5437494;26;20086;-80
2024/04/13 07:45:44;;;;;;;0.47;0.47;;;18.50;75.40;;;;;;5429436;26;20418;-80
2024/04/13 07:48:13;;;;;;;0.43;0.40;;;18.60;75.50;;;;;;5377119;26;20466;-80
2024/04/13 07:50:39;;;;;;;0.65;0.65;;;18.60;75.40;;;;;;5403085;26;20007;-80
2024/04/13 07:53:04;;;;;;;0.50;0.50;;;18.60;75.30;;;;;;5375529;26;20084;-81
2024/04/13 07:55:30;;;;;;;0.50;0.50;;;18.60;75.40;;;;;;5434813;26;19999;-80
2024/04/13 07:57:55;;;;;;;0.70;0.70;;;18.70;75.20;;;;;;5433885;26;20022;-81
2024/04/13 08:00:21;;;;;;;0.60;0.60;;;18.70;75.30;;;;;;5406493;26;20091;-80
2024/04/13 08:02:47;;;;;;;0.70;0.70;;;18.70;76.00;;;;;;5405070;26;20003;-80
2024/04/13 08:05:14;;;;;;;1.02;0.80;;;18.70;75.80;;;;;;5434784;26;20508;-81
2024/04/13 08:07:47;;;;;;;1.45;0.60;;;18.60;75.90;;;;;;5379489;26;20042;-80
2024/04/13 08:10:21;;;;;;;2.92;0.57;;;18.70;76.00;;;;;;5469820;26;20013;-81
2024/04/13 08:12:47;;;;;;;0.45;0.45;;;18.70;75.70;;;;;;5433568;26;20014;-80
2024/04/13 08:15:12;;;;;;;0.77;0.73;;;18.70;75.60;;;;;;5435196;26;20466;-81
2024/04/13 08:17:38;;;;;;;1.00;0.70;;;18.70;75.50;;;;;;5402353;26;20087;-81
2024/04/13 08:20:08;;;;;;;1.65;0.52;;;18.70;75.50;;;;;;5398582;26;20816;-83
2024/04/13 08:22:35;;;;;;;1.85;0.50;;;18.80;75.50;;;;;;5116196;25;9999904;-83
2024/04/13 08:25:01;;;;;;;1.15;0.50;;;18.80;76.30;;;;;;5381071;26;20030;-83
2024/04/13 08:27:26;;;;;;;1.70;0.73;;;18.90;76.40;;;;;;5440092;26;20337;-83
2024/04/13 08:29:57;;;;;;;1.95;0.70;;;18.80;76.30;;;;;;5456653;26;19997;-86
2024/04/13 08:32:23;;;;;;;0.50;0.50;;;18.90;76.80;;;;;;5417946;26;20018;-84
2024/04/13 08:34:51;;;;;;;1.15;0.90;;;18.90;76.80;;;;;;5405715;26;20030;-83
2024/04/13 08:37:17;;;;;;;0.85;0.70;;;18.90;75.70;;;;;;5410578;26;20004;-81
2024/04/13 08:39:43;;;;;;;0.95;0.80;;;19.00;75.70;;;;;;5494647;26;20384;-81
2024/04/13 08:42:10;;;;;;;1.90;0.47;;;18.90;75.70;;;;;;5412443;26;20011;-82
2024/04/13 08:44:36;;;;;;;0.77;0.70;;;19.00;75.50;;;;;;5381346;26;20007;-82
2024/04/13 08:47:02;;;;;;;0.75;0.73;;;19.00;75.50;;;;;;5382909;26;20011;-82
2024/04/13 08:49:29;;;;;;;1.08;0.60;;;19.00;75.50;;;;;;5415649;26;20018;-82
2024/04/13 08:51:54;;;;;;;0.70;0.70;;;19.00;75.50;;;;;;5413194;26;19998;-82
2024/04/13 08:54:20;;;;;;;0.80;0.70;;;19.00;75.50;;;;;;5411949;26;20076;-82
2024/04/13 08:56:47;;;;;;;2.00;0.80;;;19.00;75.50;;;;;;5383398;26;20003;-81
2024/04/13 08:59:13;;;;;;;0.75;0.75;;;19.10;75.50;;;;;;5384857;26;20017;-82
2024/04/13 09:01:42;;;;;;;2.22;0.70;;;19.10;75.40;;;;;;5412305;26;20002;-79
2024/04/13 09:04:08;;;;;;;6.18;1.00;;;19.20;75.30;;;;;;5386560;26;20014;-79
2024/04/13 09:06:33;;;;;;;0.70;0.70;;;19.30;75.20;;;;;;5383079;26;20011;-80
2024/04/13 09:09:08;;;;;;;1.15;0.85;;;19.30;75.10;;;;;;5412704;26;20087;-82
2024/04/13 09:11:36;;;;;;;5.68;0.98;;;19.30;75.20;;;;;;5413587;26;20372;-81
2024/04/13 09:14:05;;;;;;;1.42;0.90;;;19.40;75.50;;;;;;5383440;26;20010;-81
2024/04/13 09:16:31;;;;;;;2.22;0.88;;;19.40;75.50;;;;;;5425044;26;20003;-82
2024/04/13 09:18:57;;;;;;;5.57;1.38;;;19.40;75.30;;;;;;5440139;26;20476;-81
2024/04/13 09:21:22;;;;;;;0.95;0.93;;;19.60;75.20;;;;;;5444630;26;20011;-81
2024/04/13 09:23:49;;;;;;;0.98;0.82;;;19.50;75.20;;;;;;5442652;26;20030;-81
2024/04/13 09:26:15;;;;;;;2.60;0.93;;;19.50;75.30;;;;;;5381301;26;19999;-82
2024/04/13 09:28:44;;;;;;;6.00;0.68;;;19.50;75.50;;;;;;5380075;26;20019;-81
2024/04/13 09:31:11;;;;;;;2.38;0.80;;;19.50;75.30;;;;;;5416687;26;20013;-81
2024/04/13 09:33:37;;;;;;;2.30;0.70;;;19.50;75.10;;;;;;5412821;26;20379;-81
2024/04/13 09:36:03;;;;;;;3.33;0.70;;;19.50;75.00;;;;;;5413124;26;19995;-81
2024/04/13 09:38:29;;;;;;;1.10;1.00;;;19.50;75.00;;;;;;5491013;26;20035;-81
2024/04/13 09:41:00;;;;;;;1.20;0.65;;;19.50;74.80;;;;;;5468682;26;20358;-82
2024/04/13 09:43:26;;;;;;;0.90;0.70;;;19.60;74.70;;;;;;5442890;26;20025;-81
2024/04/13 09:45:56;;;;;;;2.30;1.02;;;19.60;74.60;;;;;;5442604;26;20007;-82
2024/04/13 09:48:22;;;;;;;1.88;0.60;;;19.60;74.50;;;;;;5496500;25;20003;-82
2024/04/13 09:50:47;;;;;;;1.70;1.00;;;19.70;74.50;;;;;;5442440;26;20108;-81
2024/04/13 09:53:13;;;;;;;0.80;0.77;;;19.70;74.40;;;;;;5412881;26;19998;-81
2024/04/13 09:55:39;;;;;;;0.95;0.70;;;19.80;74.30;;;;;;5411213;26;20464;-81
2024/04/13 09:58:04;;;;;;;1.52;0.90;;;19.70;74.20;;;;;;5414815;26;20408;-81
2024/04/13 10:00:30;;;;;;;1.35;0.68;;;19.70;74.90;;;;;;5497464;25;20007;-81
2024/04/13 10:02:55;;;;;;;0.73;0.63;;;19.80;74.10;;;;;;5382388;26;20128;-81
2024/04/13 10:05:21;;;;;;;0.57;0.57;;;19.80;74.00;;;;;;5386443;26;19999;-81
2024/04/13 10:07:46;;;;;;;2.40;0.60;;;19.80;73.90;;;;;;5438183;26;20084;-81
2024/04/13 10:10:13;;;;;;;0.40;0.40;;;19.80;73.70;;;;;;5438889;26;20003;-81
2024/04/13 10:12:39;;;;;;;0.75;0.70;;;19.90;73.70;;;;;;5407770;26;20003;-81
2024/04/13 10:15:05;;;;;;;0.80;0.68;;;19.90;73.70;;;;;;5413847;26;19999;-82
2024/04/13 10:17:30;;;;;;;1.25;0.70;;;19.90;73.70;;;;;;5438013;26;20444;-81
2024/04/13 10:19:56;;;;;;;0.55;0.55;;;19.90;73.60;;;;;;5471113;26;20377;-81
2024/04/13 10:22:22;;;;;;;2.15;0.68;;;19.90;73.50;;;;;;5442986;26;20004;-81
2024/04/13 10:24:47;;;;;;;1.77;0.43;;;19.90;73.40;;;;;;5472781;26;20003;-81
2024/04/13 10:27:13;;;;;;;0.40;0.35;;;19.90;73.40;;;;;;5436314;26;19994;-81
2024/04/13 10:29:45;;;;;;;0.50;0.50;;;19.90;73.30;;;;;;5413922;26;20043;-81
2024/04/13 10:32:22;;;;;;;0.77;0.52;;;19.90;73.30;;;;;;5411790;26;20456;-81
2024/04/13 10:34:51;;;;;;;0.50;0.50;;;19.90;73.30;;;;;;5407401;26;20030;-81
2024/04/13 10:37:35;;;;;;;1.00;0.57;;;19.90;73.20;;;;;;5443317;26;20018;-81
2024/04/13 10:40:02;;;;;;;0.38;0.38;;;20.00;73.20;;;;;;5467329;26;19995;-81
2024/04/13 10:42:35;;;;;;;1.35;0.55;;;20.00;73.20;;;;;;5411680;26;20023;-81
2024/04/13 10:45:02;;;;;;;0.50;0.50;;;20.00;73.20;;;;;;5501711;26;20011;-81
2024/04/13 10:47:29;;;;;;;0.95;0.63;;;20.00;73.10;;;;;;5383290;26;20029;-81
2024/04/13 10:49:55;;;;;;;0.70;0.68;;;20.00;73.10;;;;;;5439291;26;20010;-81
2024/04/13 10:52:20;;;;;;;0.60;0.60;;;20.00;73.10;;;;;;5422921;26;20032;-81
2024/04/13 10:54:56;;;;;;;0.55;0.55;;;20.00;73.00;;;;;;5410664;26;20007;-81
2024/04/13 10:57:21;;;;;;;0.50;0.47;;;20.00;73.00;;;;;;5439865;26;20052;-81
2024/04/13 10:59:47;;;;;;;0.88;0.65;;;20.00;73.10;;;;;;5381222;26;19999;-81
2024/04/13 11:02:12;;;;;;;0.60;0.60;;;20.00;72.90;;;;;;5470437;26;20120;-81
2024/04/13 11:04:44;;;;;;;1.20;0.60;;;20.00;72.80;;;;;;5439635;26;20018;-81
2024/04/13 11:07:13;;;;;;;1.58;0.60;;;20.10;72.90;;;;;;5442177;26;20003;-81
2024/04/13 11:09:40;;;;;;;0.82;0.43;;;20.10;72.90;;;;;;5456040;26;20015;-81
2024/04/13 11:12:12;;;;;;;4.82;0.47;;;20.10;72.80;;;;;;5411104;26;20402;-81
2024/04/13 11:14:38;;;;;;;0.70;0.40;;;20.10;72.90;;;;;;5473133;26;20011;-81
2024/04/13 11:17:03;;;;;;;2.45;0.60;;;20.10;72.90;;;;;;5409248;26;20456;-81
2024/04/13 11:19:29;;;;;;;0.38;0.38;;;20.10;72.80;;;;;;5413376;26;20010;-81
2024/04/13 11:21:55;;;;;;;0.80;0.43;;;20.00;72.70;;;;;;5441174;26;20007;-81
2024/04/13 11:24:20;;;;;;;1.23;0.50;;;20.10;72.80;;;;;;5411367;26;20011;-81
2024/04/13 11:26:46;;;;;;;0.45;0.45;;;20.10;72.70;;;;;;5412081;26;20003;-81
2024/04/13 11:29:12;;;;;;;0.55;0.55;;;20.10;72.70;;;;;;5413079;26;20013;-81
2024/04/13 11:31:37;;;;;;;0.40;0.40;;;20.10;72.80;;;;;;5468184;26;20332;-81
2024/04/13 11:34:03;;;;;;;0.40;0.40;;;20.10;72.70;;;;;;5414373;26;20071;-81
2024/04/13 11:36:29;;;;;;;0.30;0.30;;;20.10;72.70;;;;;;5442197;26;20025;-81
2024/04/13 11:38:55;;;;;;;0.40;0.40;;;20.10;72.60;;;;;;5405871;26;19995;-81
2024/04/13 11:41:21;;;;;;;1.73;0.70;;;20.10;72.60;;;;;;5441977;26;20035;-81
2024/04/13 11:43:53;;;;;;;0.50;0.50;;;20.10;72.60;;;;;;5411466;26;20007;-81
2024/04/13 11:46:19;;;;;;;0.50;0.40;;;20.10;73.40;;;;;;5414443;26;20011;-81
2024/04/13 11:48:45;;;;;;;0.40;0.40;;;20.10;72.60;;;;;;5438157;26;19995;-81
2024/04/13 11:51:10;;;;;;;0.50;0.40;;;20.10;72.60;;;;;;5382775;26;20338;-81
2024/04/13 11:53:36;;;;;;;0.47;0.47;;;20.10;72.50;;;;;;5412760;26;20007;-81
2024/04/13 11:56:02;;;;;;;0.40;0.40;;;20.10;72.60;;;;;;5440896;26;20010;-81
2024/04/13 11:58:28;;;;;;;0.50;0.45;;;20.10;72.60;;;;;;5442893;26;19995;-81
2024/04/13 12:00:53;;;;;;;1.55;0.40;;;20.10;72.60;;;;;;5394671;26;20022;-81
2024/04/13 12:03:19;;;;;;;0.40;0.40;;;20.20;72.60;;;;;;5384100;26;20437;-81
2024/04/13 12:05:46;;;;;;;0.32;0.32;;;20.10;72.50;;;;;;5439364;26;20027;-81
2024/04/13 12:08:11;;;;;;;0.30;0.30;;;20.10;72.50;;;;;;5411666;26;20338;-81
2024/04/13 12:10:38;;;;;;;0.52;0.50;;;20.20;72.40;;;;;;5409256;26;20455;-81
2024/04/13 12:13:03;;;;;;;0.60;0.47;;;20.20;72.40;;;;;;5413229;26;20034;-81
2024/04/13 12:15:29;;;;;;;0.57;0.57;;;20.10;72.50;;;;;;5442768;26;20397;-81
2024/04/13 12:17:55;;;;;;;0.40;0.40;;;20.10;72.50;;;;;;5432865;26;20113;-81
2024/04/13 12:20:20;;;;;;;0.40;0.40;;;20.20;72.50;;;;;;5435037;26;20407;-81
2024/04/13 12:22:46;;;;;;;0.40;0.40;;;20.20;72.50;;;;;;5439742;26;20007;-81
2024/04/13 12:25:11;;;;;;;0.30;0.30;;;20.10;72.30;;;;;;5437536;26;20339;-81
2024/04/13 12:27:37;;;;;;;0.32;0.32;;;20.20;72.30;;;;;;5445751;26;20003;-81
2024/04/13 12:30:03;;;;;;;0.77;0.40;;;20.20;72.30;;;;;;5411408;26;20006;-81
2024/04/13 12:32:30;;;;;;;0.63;0.52;;;20.10;72.40;;;;;;5411218;26;20044;-81
2024/04/13 12:34:57;;;;;;;0.77;0.57;;;20.10;72.40;;;;;;5494014;25;20039;-81
2024/04/13 12:37:22;;;;;;;2.28;0.50;;;20.20;72.40;;;;;;5443068;26;19995;-81
2024/04/13 12:39:48;;;;;;;0.45;0.45;;;20.20;72.50;;;;;;5409620;26;20099;-81
2024/04/13 12:42:14;;;;;;;0.30;0.30;;;20.20;72.40;;;;;;5411910;26;20332;-81
2024/04/13 12:44:40;;;;;;;0.30;0.30;;;20.20;72.40;;;;;;5438723;26;20108;-81